sensor_id;sensor_type;location;lat;lon;timestamp;P1;durP1;ratioP1;P2;durP2;ratioP2
50104;SDS011;47690;39.202;-77.198;2022-08-01T00:02:27;3.05;;;2.75;;
50104;SDS011;47690;39.202;-77.198;2022-08-01T00:05:02;3.08;;;2.78;;
50104;SDS011;47690;39.202;-77.198;2022-08-01T00:07:37;3.22;;;2.92;;
50104;SDS011;47690;39.202;-77.198;2022-08-01T00:10:15;3.22;;;2.92;;
50104;SDS011;47690;39.202;-77.198;2022-08-01T00:12:50;3.10;;;2.70;;
50104;SDS011;47690;39.202;-77.198;2022-08-01T00:15:26;3.30;;;3.00;;
50104;SDS011;47690;39.202;-77.198;2022-08-01T00:20:38;3.47;;;2.30;;
50104;SDS011;47690;39.202;-77.198;2022-08-01T00:23:10;2.88;;;2.65;;
50104;SDS011;47690;39.202;-77.198;2022-08-01T00:25:42;2.50;;;2.30;;
50104;SDS011;47690;39.202;-77.198;2022-08-01T00:28:14;3.10;;;2.73;;
50104;SDS011;47690;39.202;-77.198;2022-08-01T00:30:47;2.90;;;2.60;;
50104;SDS011;47690;39.202;-77.198;2022-08-01T00:33:17;3.63;;;3.05;;
50104;SDS011;47690;39.202;-77.198;2022-08-01T00:35:51;3.53;;;3.22;;
50104;SDS011;47690;39.202;-77.198;2022-08-01T00:38:25;2.77;;;2.50;;
50104;SDS011;47690;39.202;-77.198;2022-08-01T00:40:56;2.95;;;2.72;;
50104;SDS011;47690;39.202;-77.198;2022-08-01T00:43:30;3.75;;;2.70;;
50104;SDS011;47690;39.202;-77.198;2022-08-01T00:46:00;2.78;;;2.58;;
50104;SDS011;47690;39.202;-77.198;2022-08-01T00:48:30;3.22;;;2.92;;
50104;SDS011;47690;39.202;-77.198;2022-08-01T00:51:09;3.20;;;2.90;;
50104;SDS011;47690;39.202;-77.198;2022-08-01T00:53:42;3.05;;;2.63;;
50104;SDS011;47690;39.202;-77.198;2022-08-01T00:56:19;2.90;;;2.70;;
50104;SDS011;47690;39.202;-77.198;2022-08-01T00:58:50;3.20;;;2.90;;
50104;SDS011;47690;39.202;-77.198;2022-08-01T01:01:22;3.15;;;2.72;;
50104;SDS011;47690;39.202;-77.198;2022-08-01T01:04:11;3.00;;;2.70;;
50104;SDS011;47690;39.202;-77.198;2022-08-01T01:12:15;2.97;;;2.67;;
50104;SDS011;47690;39.202;-77.198;2022-08-01T01:17:41;2.90;;;2.70;;
50104;SDS011;47690;39.202;-77.198;2022-08-01T01:20:21;2.88;;;2.60;;
50104;SDS011;47690;39.202;-77.198;2022-08-01T01:28:23;3.63;;;2.58;;
50104;SDS011;47690;39.202;-77.198;2022-08-01T01:30:58;3.00;;;2.70;;
50104;SDS011;47690;39.202;-77.198;2022-08-01T01:33:34;2.63;;;2.40;;
50104;SDS011;47690;39.202;-77.198;2022-08-01T01:36:15;3.15;;;2.50;;
50104;SDS011;47690;39.202;-77.198;2022-08-01T01:38:46;5.57;;;2.75;;
50104;SDS011;47690;39.202;-77.198;2022-08-01T01:41:22;3.90;;;2.70;;
50104;SDS011;47690;39.202;-77.198;2022-08-01T01:43:57;2.92;;;2.47;;
50104;SDS011;47690;39.202;-77.198;2022-08-01T01:46:28;2.58;;;2.38;;
50104;SDS011;47690;39.202;-77.198;2022-08-01T01:49:00;2.72;;;2.53;;
50104;SDS011;47690;39.202;-77.198;2022-08-01T01:51:38;3.58;;;2.60;;
50104;SDS011;47690;39.202;-77.198;2022-08-01T01:54:50;2.65;;;2.45;;
50104;SDS011;47690;39.202;-77.198;2022-08-01T01:57:29;2.67;;;2.47;;
50104;SDS011;47690;39.202;-77.198;2022-08-01T02:00:11;2.75;;;2.55;;
50104;SDS011;47690;39.202;-77.198;2022-08-01T02:02:58;2.70;;;2.50;;
50104;SDS011;47690;39.202;-77.198;2022-08-01T02:05:33;4.13;;;2.63;;
50104;SDS011;47690;39.202;-77.198;2022-08-01T02:08:05;3.53;;;2.63;;
50104;SDS011;47690;39.202;-77.198;2022-08-01T02:10:36;3.22;;;2.92;;
50104;SDS011;47690;39.202;-77.198;2022-08-01T02:13:12;2.88;;;2.58;;
50104;SDS011;47690;39.202;-77.198;2022-08-01T02:15:47;2.60;;;2.40;;
50104;SDS011;47690;39.202;-77.198;2022-08-01T02:18:30;3.15;;;2.65;;
50104;SDS011;47690;39.202;-77.198;2022-08-01T02:21:05;2.90;;;2.60;;
50104;SDS011;47690;39.202;-77.198;2022-08-01T02:23:44;2.53;;;2.33;;
50104;SDS011;47690;39.202;-77.198;2022-08-01T02:26:31;2.80;;;2.42;;
50104;SDS011;47690;39.202;-77.198;2022-08-01T02:29:04;3.85;;;2.70;;
50104;SDS011;47690;39.202;-77.198;2022-08-01T02:31:39;3.05;;;2.70;;
50104;SDS011;47690;39.202;-77.198;2022-08-01T02:34:20;3.70;;;2.90;;
50104;SDS011;47690;39.202;-77.198;2022-08-01T02:36:53;3.28;;;2.90;;
50104;SDS011;47690;39.202;-77.198;2022-08-01T02:39:27;4.30;;;3.03;;
50104;SDS011;47690;39.202;-77.198;2022-08-01T02:41:59;3.28;;;2.97;;
50104;SDS011;47690;39.202;-77.198;2022-08-01T02:44:33;3.20;;;2.90;;
50104;SDS011;47690;39.202;-77.198;2022-08-01T02:47:04;3.40;;;3.10;;
50104;SDS011;47690;39.202;-77.198;2022-08-01T02:49:39;3.70;;;3.13;;
50104;SDS011;47690;39.202;-77.198;2022-08-01T02:52:15;3.70;;;3.05;;
50104;SDS011;47690;39.202;-77.198;2022-08-01T02:54:44;3.45;;;3.15;;
50104;SDS011;47690;39.202;-77.198;2022-08-01T02:57:14;3.13;;;2.92;;
50104;SDS011;47690;39.202;-77.198;2022-08-01T02:59:47;3.30;;;3.00;;
50104;SDS011;47690;39.202;-77.198;2022-08-01T03:02:23;3.63;;;3.08;;
50104;SDS011;47690;39.202;-77.198;2022-08-01T03:04:52;3.35;;;3.05;;
50104;SDS011;47690;39.202;-77.198;2022-08-01T03:07:25;3.20;;;2.90;;
50104;SDS011;47690;39.202;-77.198;2022-08-01T03:10:04;3.20;;;2.92;;
50104;SDS011;47690;39.202;-77.198;2022-08-01T03:12:35;3.90;;;3.30;;
50104;SDS011;47690;39.202;-77.198;2022-08-01T03:15:07;3.35;;;3.05;;
50104;SDS011;47690;39.202;-77.198;2022-08-01T03:17:47;3.47;;;3.17;;
50104;SDS011;47690;39.202;-77.198;2022-08-01T03:20:18;3.50;;;3.20;;
50104;SDS011;47690;39.202;-77.198;2022-08-01T03:22:50;3.92;;;3.30;;
50104;SDS011;47690;39.202;-77.198;2022-08-01T03:25:21;3.63;;;3.33;;
50104;SDS011;47690;39.202;-77.198;2022-08-01T03:27:55;5.72;;;3.22;;
50104;SDS011;47690;39.202;-77.198;2022-08-01T03:30:25;3.70;;;3.30;;
50104;SDS011;47690;39.202;-77.198;2022-08-01T03:32:55;3.65;;;3.35;;
50104;SDS011;47690;39.202;-77.198;2022-08-01T03:35:29;3.58;;;3.28;;
50104;SDS011;47690;39.202;-77.198;2022-08-01T03:38:00;3.60;;;3.30;;
50104;SDS011;47690;39.202;-77.198;2022-08-01T03:43:56;4.05;;;3.53;;
50104;SDS011;47690;39.202;-77.198;2022-08-01T03:46:31;3.28;;;2.97;;
50104;SDS011;47690;39.202;-77.198;2022-08-01T03:49:03;3.70;;;3.40;;
50104;SDS011;47690;39.202;-77.198;2022-08-01T03:54:06;3.25;;;2.80;;
50104;SDS011;47690;39.202;-77.198;2022-08-01T03:56:47;5.32;;;3.50;;
50104;SDS011;47690;39.202;-77.198;2022-08-01T03:59:18;3.30;;;3.00;;
50104;SDS011;47690;39.202;-77.198;2022-08-01T04:01:49;3.33;;;3.03;;
50104;SDS011;47690;39.202;-77.198;2022-08-01T04:04:19;3.20;;;2.90;;
50104;SDS011;47690;39.202;-77.198;2022-08-01T04:06:52;3.55;;;3.25;;
50104;SDS011;47690;39.202;-77.198;2022-08-01T04:09:23;3.47;;;3.17;;
50104;SDS011;47690;39.202;-77.198;2022-08-01T04:12:00;3.85;;;2.92;;
50104;SDS011;47690;39.202;-77.198;2022-08-01T04:14:40;3.53;;;3.13;;
50104;SDS011;47690;39.202;-77.198;2022-08-01T04:17:15;3.35;;;3.05;;
50104;SDS011;47690;39.202;-77.198;2022-08-01T04:19:47;3.50;;;3.20;;
50104;SDS011;47690;39.202;-77.198;2022-08-01T04:22:24;3.53;;;3.22;;
50104;SDS011;47690;39.202;-77.198;2022-08-01T04:24:54;3.53;;;3.00;;
50104;SDS011;47690;39.202;-77.198;2022-08-01T04:27:28;3.30;;;3.00;;
50104;SDS011;47690;39.202;-77.198;2022-08-01T04:30:25;3.75;;;3.25;;
50104;SDS011;47690;39.202;-77.198;2022-08-01T04:33:02;3.10;;;2.80;;
50104;SDS011;47690;39.202;-77.198;2022-08-01T04:35:36;3.28;;;2.97;;
50104;SDS011;47690;39.202;-77.198;2022-08-01T04:38:37;3.42;;;3.00;;
50104;SDS011;47690;39.202;-77.198;2022-08-01T04:41:12;3.72;;;3.15;;
50104;SDS011;47690;39.202;-77.198;2022-08-01T04:43:45;4.32;;;3.35;;
50104;SDS011;47690;39.202;-77.198;2022-08-01T04:46:19;3.50;;;3.20;;
50104;SDS011;47690;39.202;-77.198;2022-08-01T04:48:51;3.40;;;3.10;;
50104;SDS011;47690;39.202;-77.198;2022-08-01T04:51:25;4.00;;;2.92;;
50104;SDS011;47690;39.202;-77.198;2022-08-01T04:53:55;3.70;;;3.15;;
50104;SDS011;47690;39.202;-77.198;2022-08-01T04:56:27;3.28;;;2.97;;
50104;SDS011;47690;39.202;-77.198;2022-08-01T04:58:58;3.53;;;3.20;;
50104;SDS011;47690;39.202;-77.198;2022-08-01T05:01:50;3.00;;;2.78;;
50104;SDS011;47690;39.202;-77.198;2022-08-01T05:04:22;3.53;;;3.22;;
50104;SDS011;47690;39.202;-77.198;2022-08-01T05:06:54;4.75;;;3.05;;
50104;SDS011;47690;39.202;-77.198;2022-08-01T05:09:23;3.28;;;2.97;;
50104;SDS011;47690;39.202;-77.198;2022-08-01T05:12:01;3.53;;;3.22;;
50104;SDS011;47690;39.202;-77.198;2022-08-01T05:14:33;3.17;;;2.88;;
50104;SDS011;47690;39.202;-77.198;2022-08-01T05:17:04;3.90;;;3.15;;
50104;SDS011;47690;39.202;-77.198;2022-08-01T05:19:39;3.60;;;3.08;;
50104;SDS011;47690;39.202;-77.198;2022-08-01T05:22:14;3.55;;;3.25;;
50104;SDS011;47690;39.202;-77.198;2022-08-01T05:24:46;3.85;;;3.50;;
50104;SDS011;47690;39.202;-77.198;2022-08-01T05:27:18;3.47;;;3.17;;
50104;SDS011;47690;39.202;-77.198;2022-08-01T05:29:55;3.33;;;3.03;;
50104;SDS011;47690;39.202;-77.198;2022-08-01T05:32:29;4.55;;;3.20;;
50104;SDS011;47690;39.202;-77.198;2022-08-01T05:35:03;3.45;;;3.15;;
50104;SDS011;47690;39.202;-77.198;2022-08-01T05:37:38;3.60;;;3.30;;
50104;SDS011;47690;39.202;-77.198;2022-08-01T05:40:13;3.55;;;3.25;;
50104;SDS011;47690;39.202;-77.198;2022-08-01T05:42:43;3.40;;;3.10;;
50104;SDS011;47690;39.202;-77.198;2022-08-01T05:45:14;4.45;;;3.40;;
50104;SDS011;47690;39.202;-77.198;2022-08-01T05:47:47;3.65;;;3.35;;
50104;SDS011;47690;39.202;-77.198;2022-08-01T05:50:19;3.72;;;3.42;;
50104;SDS011;47690;39.202;-77.198;2022-08-01T05:52:50;4.13;;;3.70;;
50104;SDS011;47690;39.202;-77.198;2022-08-01T05:55:26;3.72;;;3.33;;
50104;SDS011;47690;39.202;-77.198;2022-08-01T05:57:54;5.32;;;3.25;;
50104;SDS011;47690;39.202;-77.198;2022-08-01T06:00:26;3.53;;;3.22;;
50104;SDS011;47690;39.202;-77.198;2022-08-01T06:02:55;3.67;;;3.28;;
50104;SDS011;47690;39.202;-77.198;2022-08-01T06:05:27;4.03;;;3.63;;
50104;SDS011;47690;39.202;-77.198;2022-08-01T06:07:58;5.22;;;4.20;;
50104;SDS011;47690;39.202;-77.198;2022-08-01T06:10:28;4.55;;;3.53;;
50104;SDS011;47690;39.202;-77.198;2022-08-01T06:12:58;5.43;;;3.67;;
50104;SDS011;47690;39.202;-77.198;2022-08-01T06:15:31;3.95;;;3.58;;
50104;SDS011;47690;39.202;-77.198;2022-08-01T06:18:03;3.70;;;3.15;;
50104;SDS011;47690;39.202;-77.198;2022-08-01T06:20:34;3.67;;;3.38;;
50104;SDS011;47690;39.202;-77.198;2022-08-01T06:23:09;3.63;;;3.33;;
50104;SDS011;47690;39.202;-77.198;2022-08-01T06:25:59;4.43;;;3.28;;
50104;SDS011;47690;39.202;-77.198;2022-08-01T06:28:31;3.63;;;3.33;;
50104;SDS011;47690;39.202;-77.198;2022-08-01T06:31:02;4.03;;;3.63;;
50104;SDS011;47690;39.202;-77.198;2022-08-01T06:33:31;3.50;;;3.20;;
50104;SDS011;47690;39.202;-77.198;2022-08-01T06:36:02;4.20;;;3.60;;
50104;SDS011;47690;39.202;-77.198;2022-08-01T06:38:32;3.83;;;3.53;;
50104;SDS011;47690;39.202;-77.198;2022-08-01T06:41:02;3.60;;;3.30;;
50104;SDS011;47690;39.202;-77.198;2022-08-01T06:43:35;7.45;;;3.78;;
50104;SDS011;47690;39.202;-77.198;2022-08-01T06:46:05;4.13;;;3.72;;
50104;SDS011;47690;39.202;-77.198;2022-08-01T06:48:34;4.07;;;3.67;;
50104;SDS011;47690;39.202;-77.198;2022-08-01T06:51:10;3.95;;;3.55;;
50104;SDS011;47690;39.202;-77.198;2022-08-01T06:53:45;3.85;;;3.50;;
50104;SDS011;47690;39.202;-77.198;2022-08-01T06:56:15;4.10;;;3.63;;
50104;SDS011;47690;39.202;-77.198;2022-08-01T06:58:45;4.10;;;3.65;;
50104;SDS011;47690;39.202;-77.198;2022-08-01T07:01:14;3.97;;;3.60;;
50104;SDS011;47690;39.202;-77.198;2022-08-01T07:03:45;4.07;;;3.67;;
50104;SDS011;47690;39.202;-77.198;2022-08-01T07:06:22;3.88;;;3.45;;
50104;SDS011;47690;39.202;-77.198;2022-08-01T07:08:53;4.10;;;3.42;;
50104;SDS011;47690;39.202;-77.198;2022-08-01T07:11:23;4.32;;;3.40;;
50104;SDS011;47690;39.202;-77.198;2022-08-01T07:13:54;4.22;;;3.83;;
50104;SDS011;47690;39.202;-77.198;2022-08-01T07:16:23;4.05;;;3.65;;
50104;SDS011;47690;39.202;-77.198;2022-08-01T07:18:54;4.97;;;3.47;;
50104;SDS011;47690;39.202;-77.198;2022-08-01T07:21:23;5.18;;;3.92;;
50104;SDS011;47690;39.202;-77.198;2022-08-01T07:24:10;5.20;;;3.92;;
50104;SDS011;47690;39.202;-77.198;2022-08-01T07:26:44;4.32;;;3.92;;
50104;SDS011;47690;39.202;-77.198;2022-08-01T07:29:22;5.22;;;4.15;;
50104;SDS011;47690;39.202;-77.198;2022-08-01T07:31:55;5.70;;;4.10;;
50104;SDS011;47690;39.202;-77.198;2022-08-01T07:34:25;5.22;;;4.18;;
50104;SDS011;47690;39.202;-77.198;2022-08-01T07:36:56;4.45;;;3.70;;
50104;SDS011;47690;39.202;-77.198;2022-08-01T07:39:27;4.72;;;4.18;;
50104;SDS011;47690;39.202;-77.198;2022-08-01T07:41:59;7.22;;;4.43;;
50104;SDS011;47690;39.202;-77.198;2022-08-01T07:44:35;4.40;;;3.88;;
50104;SDS011;47690;39.202;-77.198;2022-08-01T07:47:04;4.70;;;4.25;;
50104;SDS011;47690;39.202;-77.198;2022-08-01T07:49:34;5.72;;;3.83;;
50104;SDS011;47690;39.202;-77.198;2022-08-01T07:52:14;4.32;;;3.85;;
50104;SDS011;47690;39.202;-77.198;2022-08-01T07:54:49;5.25;;;4.20;;
50104;SDS011;47690;39.202;-77.198;2022-08-01T07:57:23;4.93;;;4.10;;
50104;SDS011;47690;39.202;-77.198;2022-08-01T07:59:55;5.20;;;4.38;;
50104;SDS011;47690;39.202;-77.198;2022-08-01T08:02:24;5.18;;;4.63;;
50104;SDS011;47690;39.202;-77.198;2022-08-01T08:04:55;5.75;;;4.15;;
50104;SDS011;47690;39.202;-77.198;2022-08-01T08:07:25;4.65;;;4.10;;
50104;SDS011;47690;39.202;-77.198;2022-08-01T08:09:54;5.10;;;3.95;;
50104;SDS011;47690;39.202;-77.198;2022-08-01T08:12:23;4.70;;;4.22;;
50104;SDS011;47690;39.202;-77.198;2022-08-01T08:14:57;5.43;;;4.65;;
50104;SDS011;47690;39.202;-77.198;2022-08-01T08:17:31;5.22;;;3.92;;
50104;SDS011;47690;39.202;-77.198;2022-08-01T08:20:06;4.97;;;4.47;;
50104;SDS011;47690;39.202;-77.198;2022-08-01T08:22:37;5.40;;;4.28;;
50104;SDS011;47690;39.202;-77.198;2022-08-01T08:25:15;6.03;;;4.43;;
50104;SDS011;47690;39.202;-77.198;2022-08-01T08:27:46;6.40;;;4.65;;
50104;SDS011;47690;39.202;-77.198;2022-08-01T08:30:15;5.18;;;4.07;;
50104;SDS011;47690;39.202;-77.198;2022-08-01T08:32:50;6.40;;;4.47;;
50104;SDS011;47690;39.202;-77.198;2022-08-01T08:35:23;6.30;;;4.07;;
50104;SDS011;47690;39.202;-77.198;2022-08-01T08:38:09;5.20;;;3.90;;
50104;SDS011;47690;39.202;-77.198;2022-08-01T08:40:42;4.35;;;3.70;;
50104;SDS011;47690;39.202;-77.198;2022-08-01T08:45:46;4.43;;;3.53;;
50104;SDS011;47690;39.202;-77.198;2022-08-01T08:48:27;5.15;;;3.83;;
50104;SDS011;47690;39.202;-77.198;2022-08-01T08:51:01;4.30;;;3.60;;
50104;SDS011;47690;39.202;-77.198;2022-08-01T08:53:31;4.55;;;3.67;;
50104;SDS011;47690;39.202;-77.198;2022-08-01T08:56:06;3.63;;;3.33;;
50104;SDS011;47690;39.202;-77.198;2022-08-01T08:58:45;3.83;;;3.45;;
50104;SDS011;47690;39.202;-77.198;2022-08-01T09:01:17;3.75;;;3.45;;
50104;SDS011;47690;39.202;-77.198;2022-08-01T09:03:51;4.00;;;3.50;;
50104;SDS011;47690;39.202;-77.198;2022-08-01T09:06:23;3.75;;;3.38;;
50104;SDS011;47690;39.202;-77.198;2022-08-01T09:08:57;4.00;;;3.60;;
50104;SDS011;47690;39.202;-77.198;2022-08-01T09:11:29;4.10;;;3.67;;
50104;SDS011;47690;39.202;-77.198;2022-08-01T09:16:31;3.95;;;3.55;;
50104;SDS011;47690;39.202;-77.198;2022-08-01T09:19:17;4.05;;;3.38;;
50104;SDS011;47690;39.202;-77.198;2022-08-01T09:22:15;3.80;;;3.40;;
50104;SDS011;47690;39.202;-77.198;2022-08-01T09:24:57;3.85;;;3.45;;
50104;SDS011;47690;39.202;-77.198;2022-08-01T09:27:29;4.28;;;3.35;;
50104;SDS011;47690;39.202;-77.198;2022-08-01T09:30:10;4.00;;;3.70;;
50104;SDS011;47690;39.202;-77.198;2022-08-01T09:33:03;3.58;;;3.25;;
50104;SDS011;47690;39.202;-77.198;2022-08-01T09:35:43;4.25;;;3.53;;
50104;SDS011;47690;39.202;-77.198;2022-08-01T09:38:16;4.10;;;3.50;;
50104;SDS011;47690;39.202;-77.198;2022-08-01T09:40:58;3.67;;;3.30;;
50104;SDS011;47690;39.202;-77.198;2022-08-01T09:43:31;3.80;;;3.33;;
50104;SDS011;47690;39.202;-77.198;2022-08-01T09:46:10;3.72;;;3.33;;
50104;SDS011;47690;39.202;-77.198;2022-08-01T09:49:02;3.40;;;3.10;;
50104;SDS011;47690;39.202;-77.198;2022-08-01T09:51:43;3.80;;;3.45;;
50104;SDS011;47690;39.202;-77.198;2022-08-01T09:54:31;3.33;;;3.03;;
50104;SDS011;47690;39.202;-77.198;2022-08-01T09:57:13;3.35;;;3.05;;
50104;SDS011;47690;39.202;-77.198;2022-08-01T09:59:54;3.13;;;2.83;;
50104;SDS011;47690;39.202;-77.198;2022-08-01T10:03:24;3.78;;;2.97;;
50104;SDS011;47690;39.202;-77.198;2022-08-01T10:06:09;3.25;;;2.90;;
50104;SDS011;47690;39.202;-77.198;2022-08-01T10:08:53;3.15;;;2.65;;
50104;SDS011;47690;39.202;-77.198;2022-08-01T10:11:23;2.75;;;2.55;;
50104;SDS011;47690;39.202;-77.198;2022-08-01T10:14:03;3.17;;;2.88;;
50104;SDS011;47690;39.202;-77.198;2022-08-01T10:16:36;2.90;;;2.67;;
50104;SDS011;47690;39.202;-77.198;2022-08-01T10:19:15;3.22;;;2.92;;
50104;SDS011;47690;39.202;-77.198;2022-08-01T10:21:48;3.63;;;2.72;;
50104;SDS011;47690;39.202;-77.198;2022-08-01T10:24:27;2.95;;;2.65;;
50104;SDS011;47690;39.202;-77.198;2022-08-01T10:27:02;3.10;;;2.80;;
50104;SDS011;47690;39.202;-77.198;2022-08-01T10:32:35;3.03;;;2.72;;
50104;SDS011;47690;39.202;-77.198;2022-08-01T10:35:10;3.28;;;2.58;;
50104;SDS011;47690;39.202;-77.198;2022-08-01T10:38:10;4.63;;;2.65;;
50104;SDS011;47690;39.202;-77.198;2022-08-01T10:40:44;3.20;;;2.90;;
50104;SDS011;47690;39.202;-77.198;2022-08-01T10:43:18;3.03;;;2.72;;
50104;SDS011;47690;39.202;-77.198;2022-08-01T10:45:49;3.10;;;2.58;;
50104;SDS011;47690;39.202;-77.198;2022-08-01T10:48:39;2.90;;;2.45;;
50104;SDS011;47690;39.202;-77.198;2022-08-01T10:51:14;2.50;;;2.30;;
50104;SDS011;47690;39.202;-77.198;2022-08-01T10:53:51;2.70;;;2.50;;
50104;SDS011;47690;39.202;-77.198;2022-08-01T10:56:25;2.63;;;2.42;;
50104;SDS011;47690;39.202;-77.198;2022-08-01T10:59:14;2.60;;;2.40;;
50104;SDS011;47690;39.202;-77.198;2022-08-01T11:02:09;2.63;;;2.42;;
50104;SDS011;47690;39.202;-77.198;2022-08-01T11:07:43;2.50;;;2.30;;
50104;SDS011;47690;39.202;-77.198;2022-08-01T11:10:24;2.60;;;2.40;;
50104;SDS011;47690;39.202;-77.198;2022-08-01T11:13:00;2.60;;;2.40;;
50104;SDS011;47690;39.202;-77.198;2022-08-01T11:15:34;2.53;;;2.30;;
50104;SDS011;47690;39.202;-77.198;2022-08-01T11:20:59;2.58;;;2.38;;
50104;SDS011;47690;39.202;-77.198;2022-08-01T11:23:50;2.53;;;2.33;;
50104;SDS011;47690;39.202;-77.198;2022-08-01T11:26:25;2.93;;;2.40;;
50104;SDS011;47690;39.202;-77.198;2022-08-01T11:29:14;2.78;;;2.33;;
50104;SDS011;47690;39.202;-77.198;2022-08-01T11:31:49;2.40;;;2.20;;
50104;SDS011;47690;39.202;-77.198;2022-08-01T11:34:33;2.50;;;2.30;;
50104;SDS011;47690;39.202;-77.198;2022-08-01T11:37:23;2.50;;;2.15;;
50104;SDS011;47690;39.202;-77.198;2022-08-01T11:45:50;3.40;;;2.50;;
50104;SDS011;47690;39.202;-77.198;2022-08-01T11:48:25;2.55;;;2.35;;
50104;SDS011;47690;39.202;-77.198;2022-08-01T11:50:55;2.60;;;2.40;;
50104;SDS011;47690;39.202;-77.198;2022-08-01T12:00:15;2.78;;;2.10;;
50104;SDS011;47690;39.202;-77.198;2022-08-01T12:02:56;2.30;;;2.10;;
50104;SDS011;47690;39.202;-77.198;2022-08-01T12:05:27;2.53;;;2.33;;
50104;SDS011;47690;39.202;-77.198;2022-08-01T12:07:59;2.33;;;2.13;;
50104;SDS011;47690;39.202;-77.198;2022-08-01T12:10:34;2.83;;;2.10;;
50104;SDS011;47690;39.202;-77.198;2022-08-01T12:13:18;2.53;;;2.30;;
50104;SDS011;47690;39.202;-77.198;2022-08-01T12:15:51;2.78;;;2.20;;
50104;SDS011;47690;39.202;-77.198;2022-08-01T12:18:24;2.17;;;2.00;;
50104;SDS011;47690;39.202;-77.198;2022-08-01T12:21:00;1.95;;;1.83;;
50104;SDS011;47690;39.202;-77.198;2022-08-01T12:24:01;1.80;;;1.70;;
50104;SDS011;47690;39.202;-77.198;2022-08-01T12:29:44;2.15;;;1.95;;
50104;SDS011;47690;39.202;-77.198;2022-08-01T12:32:28;2.05;;;1.88;;
50104;SDS011;47690;39.202;-77.198;2022-08-01T12:35:25;2.00;;;1.80;;
50104;SDS011;47690;39.202;-77.198;2022-08-01T12:38:05;1.90;;;1.70;;
50104;SDS011;47690;39.202;-77.198;2022-08-01T12:40:36;1.80;;;1.70;;
50104;SDS011;47690;39.202;-77.198;2022-08-01T12:43:17;1.70;;;1.60;;
50104;SDS011;47690;39.202;-77.198;2022-08-01T12:45:58;1.80;;;1.70;;
50104;SDS011;47690;39.202;-77.198;2022-08-01T12:48:29;1.80;;;1.70;;
50104;SDS011;47690;39.202;-77.198;2022-08-01T12:50:59;2.00;;;1.50;;
50104;SDS011;47690;39.202;-77.198;2022-08-01T12:53:34;1.83;;;1.67;;
50104;SDS011;47690;39.202;-77.198;2022-08-01T12:56:08;1.55;;;1.45;;
50104;SDS011;47690;39.202;-77.198;2022-08-01T12:58:42;2.00;;;1.80;;
50104;SDS011;47690;39.202;-77.198;2022-08-01T13:01:13;1.63;;;1.52;;
50104;SDS011;47690;39.202;-77.198;2022-08-01T13:03:56;1.60;;;1.50;;
50104;SDS011;47690;39.202;-77.198;2022-08-01T13:06:28;1.60;;;1.50;;
50104;SDS011;47690;39.202;-77.198;2022-08-01T13:09:05;1.60;;;1.50;;
50104;SDS011;47690;39.202;-77.198;2022-08-01T13:11:34;1.70;;;1.60;;
50104;SDS011;47690;39.202;-77.198;2022-08-01T13:14:03;1.80;;;1.70;;
50104;SDS011;47690;39.202;-77.198;2022-08-01T13:16:33;2.05;;;1.85;;
50104;SDS011;47690;39.202;-77.198;2022-08-01T13:19:41;1.83;;;1.73;;
50104;SDS011;47690;39.202;-77.198;2022-08-01T13:22:12;1.92;;;1.73;;
50104;SDS011;47690;39.202;-77.198;2022-08-01T13:24:43;1.90;;;1.80;;
50104;SDS011;47690;39.202;-77.198;2022-08-01T13:27:19;2.08;;;1.88;;
50104;SDS011;47690;39.202;-77.198;2022-08-01T13:29:53;2.08;;;1.88;;
50104;SDS011;47690;39.202;-77.198;2022-08-01T13:32:22;2.03;;;1.92;;
50104;SDS011;47690;39.202;-77.198;2022-08-01T13:35:00;1.92;;;1.83;;
50104;SDS011;47690;39.202;-77.198;2022-08-01T13:37:30;2.30;;;2.10;;
50104;SDS011;47690;39.202;-77.198;2022-08-01T13:39:59;2.38;;;2.17;;
50104;SDS011;47690;39.202;-77.198;2022-08-01T13:42:33;2.10;;;1.90;;
50104;SDS011;47690;39.202;-77.198;2022-08-01T13:45:04;2.15;;;1.95;;
50104;SDS011;47690;39.202;-77.198;2022-08-01T13:47:43;2.17;;;1.98;;
50104;SDS011;47690;39.202;-77.198;2022-08-01T13:50:35;2.28;;;2.08;;
50104;SDS011;47690;39.202;-77.198;2022-08-01T13:53:03;2.42;;;2.22;;
50104;SDS011;47690;39.202;-77.198;2022-08-01T13:55:32;2.83;;;2.30;;
50104;SDS011;47690;39.202;-77.198;2022-08-01T13:58:02;2.60;;;2.40;;
50104;SDS011;47690;39.202;-77.198;2022-08-01T14:00:31;2.50;;;2.30;;
50104;SDS011;47690;39.202;-77.198;2022-08-01T14:03:01;2.65;;;2.45;;
50104;SDS011;47690;39.202;-77.198;2022-08-01T14:05:31;2.72;;;2.53;;
50104;SDS011;47690;39.202;-77.198;2022-08-01T14:08:01;2.80;;;2.60;;
50104;SDS011;47690;39.202;-77.198;2022-08-01T14:10:32;2.83;;;2.63;;
50104;SDS011;47690;39.202;-77.198;2022-08-01T14:13:02;4.50;;;2.75;;
50104;SDS011;47690;39.202;-77.198;2022-08-01T14:15:32;2.88;;;2.58;;
50104;SDS011;47690;39.202;-77.198;2022-08-01T14:18:09;3.05;;;2.75;;
50104;SDS011;47690;39.202;-77.198;2022-08-01T14:20:39;3.10;;;2.80;;
50104;SDS011;47690;39.202;-77.198;2022-08-01T14:23:12;2.97;;;2.67;;
50104;SDS011;47690;39.202;-77.198;2022-08-01T14:25:43;3.17;;;2.88;;
50104;SDS011;47690;39.202;-77.198;2022-08-01T14:28:31;2.92;;;2.67;;
50104;SDS011;47690;39.202;-77.198;2022-08-01T14:31:03;3.45;;;3.15;;
50104;SDS011;47690;39.202;-77.198;2022-08-01T14:33:32;3.30;;;3.00;;
50104;SDS011;47690;39.202;-77.198;2022-08-01T14:36:02;3.33;;;3.03;;
50104;SDS011;47690;39.202;-77.198;2022-08-01T14:38:51;3.50;;;3.20;;
50104;SDS011;47690;39.202;-77.198;2022-08-01T14:41:26;3.28;;;2.97;;
50104;SDS011;47690;39.202;-77.198;2022-08-01T14:43:58;3.60;;;3.30;;
50104;SDS011;47690;39.202;-77.198;2022-08-01T14:46:29;3.10;;;2.80;;
50104;SDS011;47690;39.202;-77.198;2022-08-01T14:49:01;3.47;;;3.08;;
50104;SDS011;47690;39.202;-77.198;2022-08-01T14:51:30;3.83;;;3.13;;
50104;SDS011;47690;39.202;-77.198;2022-08-01T14:54:01;3.20;;;2.90;;
50104;SDS011;47690;39.202;-77.198;2022-08-01T14:56:30;3.15;;;2.85;;
50104;SDS011;47690;39.202;-77.198;2022-08-01T14:58:59;3.15;;;2.85;;
50104;SDS011;47690;39.202;-77.198;2022-08-01T15:01:30;3.08;;;2.80;;
50104;SDS011;47690;39.202;-77.198;2022-08-01T15:04:02;2.78;;;2.58;;
50104;SDS011;47690;39.202;-77.198;2022-08-01T15:06:36;3.28;;;2.97;;
50104;SDS011;47690;39.202;-77.198;2022-08-01T15:09:05;3.03;;;2.72;;
50104;SDS011;47690;39.202;-77.198;2022-08-01T15:11:35;3.33;;;3.03;;
50104;SDS011;47690;39.202;-77.198;2022-08-01T15:14:05;3.45;;;2.97;;
50104;SDS011;47690;39.202;-77.198;2022-08-01T15:16:52;3.50;;;3.20;;
50104;SDS011;47690;39.202;-77.198;2022-08-01T15:19:21;3.50;;;3.20;;
50104;SDS011;47690;39.202;-77.198;2022-08-01T15:21:50;3.58;;;3.28;;
50104;SDS011;47690;39.202;-77.198;2022-08-01T15:24:20;3.35;;;3.05;;
50104;SDS011;47690;39.202;-77.198;2022-08-01T15:26:49;3.22;;;2.92;;
50104;SDS011;47690;39.202;-77.198;2022-08-01T15:29:18;3.72;;;3.42;;
50104;SDS011;47690;39.202;-77.198;2022-08-01T15:31:47;2.95;;;2.72;;
50104;SDS011;47690;39.202;-77.198;2022-08-01T15:34:17;3.22;;;2.92;;
50104;SDS011;47690;39.202;-77.198;2022-08-01T15:36:46;3.75;;;3.35;;
50104;SDS011;47690;39.202;-77.198;2022-08-01T15:39:16;3.60;;;3.30;;
50104;SDS011;47690;39.202;-77.198;2022-08-01T15:41:45;2.95;;;2.75;;
50104;SDS011;47690;39.202;-77.198;2022-08-01T15:44:14;3.92;;;3.30;;
50104;SDS011;47690;39.202;-77.198;2022-08-01T15:46:47;3.50;;;3.20;;
50104;SDS011;47690;39.202;-77.198;2022-08-01T15:49:17;3.25;;;2.95;;
50104;SDS011;47690;39.202;-77.198;2022-08-01T15:51:49;3.38;;;3.08;;
50104;SDS011;47690;39.202;-77.198;2022-08-01T15:54:18;3.50;;;3.20;;
50104;SDS011;47690;39.202;-77.198;2022-08-01T15:56:47;4.15;;;3.17;;
50104;SDS011;47690;39.202;-77.198;2022-08-01T15:59:16;3.90;;;3.60;;